Malaga, Spain
Current Conditions -  °F | °C
As of 11:30 PM on Monday 22 Dec 2014 (Local Time) from LEMG Reporting Station
Broken Clouds Broken Clouds  
Wind Chill: 59°   Ceiling: 4500
Heat Index: 59°   Visibility: 6mi
Dew Point: 52°   Wind: 13mph
Humidity: 77%   Direction: 110°ESE
Pressure: 30.42"   Gusts: NA
Location:  36.72°N, 4.42°W
Report Text: LEMG 222230Z 11011KT 9999 FEW020 BKN045 15/11 Q1030 NOSIG
Loading
Personal Weather Stations






























Interactive Weather Map New forecast layout! Learn more

10-Day Weather Forecast

Advertisements
Track Severe Weather on mobile